sensor_id;sensor_type;location;lat;lon;timestamp;noise_LAeq;noise_LA_min;noise_LA_max;noise_LA01;noise_LA95
43512;Laerm;34054;52.100;5.116;2023-04-03T00:00:19;42.54;31.06;46.11;;
43512;Laerm;34054;52.100;5.116;2023-04-03T00:00:51;42.74;31.40;46.28;;
43512;Laerm;34054;52.100;5.116;2023-04-03T00:01:22;42.81;31.40;46.40;;
43512;Laerm;34054;52.100;5.116;2023-04-03T00:01:54;42.72;31.38;46.20;;
43512;Laerm;34054;52.100;5.116;2023-04-03T00:02:25;42.77;31.27;46.34;;
43512;Laerm;34054;52.100;5.116;2023-04-03T00:02:57;42.69;31.53;46.34;;
43512;Laerm;34054;52.100;5.116;2023-04-03T00:03:28;42.69;31.62;46.16;;
43512;Laerm;34054;52.100;5.116;2023-04-03T00:04:02;42.50;31.39;46.16;;
43512;Laerm;34054;52.100;5.116;2023-04-03T00:04:33;42.75;31.44;46.39;;
43512;Laerm;34054;52.100;5.116;2023-04-03T00:05:05;42.79;31.48;46.35;;
43512;Laerm;34054;52.100;5.116;2023-04-03T00:05:37;42.47;31.39;46.20;;
43512;Laerm;34054;52.100;5.116;2023-04-03T00:06:08;42.72;31.52;46.28;;
43512;Laerm;34054;52.100;5.116;2023-04-03T00:06:41;42.52;31.41;46.34;;
43512;Laerm;34054;52.100;5.116;2023-04-03T00:07:13;42.39;31.48;46.17;;
43512;Laerm;34054;52.100;5.116;2023-04-03T00:07:45;42.50;31.26;46.38;;
43512;Laerm;34054;52.100;5.116;2023-04-03T00:08:16;42.62;31.44;46.59;;
43512;Laerm;34054;52.100;5.116;2023-04-03T00:08:49;42.40;31.59;46.16;;
43512;Laerm;34054;52.100;5.116;2023-04-03T00:09:20;42.61;31.46;46.33;;
43512;Laerm;34054;52.100;5.116;2023-04-03T00:09:52;42.73;31.20;46.27;;
43512;Laerm;34054;52.100;5.116;2023-04-03T00:10:23;42.53;31.17;46.28;;
43512;Laerm;34054;52.100;5.116;2023-04-03T00:10:55;42.58;31.32;46.44;;
43512;Laerm;34054;52.100;5.116;2023-04-03T00:11:26;42.59;31.40;46.51;;
43512;Laerm;34054;52.100;5.116;2023-04-03T00:11:57;42.56;31.52;46.21;;
43512;Laerm;34054;52.100;5.116;2023-04-03T00:12:30;42.54;31.38;46.38;;
43512;Laerm;34054;52.100;5.116;2023-04-03T00:13:01;42.51;31.34;46.64;;
43512;Laerm;34054;52.100;5.116;2023-04-03T00:13:33;36.33;31.50;42.56;;
43512;Laerm;34054;52.100;5.116;2023-04-03T00:14:04;42.61;31.53;46.19;;
43512;Laerm;34054;52.100;5.116;2023-04-03T00:14:36;43.03;31.69;47.34;;
43512;Laerm;34054;52.100;5.116;2023-04-03T00:15:08;42.76;31.62;46.06;;
43512;Laerm;34054;52.100;5.116;2023-04-03T00:15:40;42.54;31.86;46.10;;
43512;Laerm;34054;52.100;5.116;2023-04-03T00:16:12;36.33;31.50;42.24;;
43512;Laerm;34054;52.100;5.116;2023-04-03T00:16:43;43.09;31.20;47.32;;
43512;Laerm;34054;52.100;5.116;2023-04-03T00:17:15;43.31;31.51;47.21;;
43512;Laerm;34054;52.100;5.116;2023-04-03T00:17:47;42.75;31.56;46.37;;
43512;Laerm;34054;52.100;5.116;2023-04-03T00:18:18;42.90;31.64;46.24;;
43512;Laerm;34054;52.100;5.116;2023-04-03T00:18:49;42.78;31.38;46.30;;
43512;Laerm;34054;52.100;5.116;2023-04-03T00:19:22;42.68;31.52;46.30;;
43512;Laerm;34054;52.100;5.116;2023-04-03T00:19:54;42.57;31.49;46.16;;
43512;Laerm;34054;52.100;5.116;2023-04-03T00:20:25;42.80;31.78;46.14;;
43512;Laerm;34054;52.100;5.116;2023-04-03T00:20:57;36.51;31.62;43.62;;
43512;Laerm;34054;52.100;5.116;2023-04-03T00:21:29;43.08;31.79;47.06;;
43512;Laerm;34054;52.100;5.116;2023-04-03T00:22:00;43.00;31.73;47.26;;
43512;Laerm;34054;52.100;5.116;2023-04-03T00:22:31;43.18;31.33;47.35;;
43512;Laerm;34054;52.100;5.116;2023-04-03T00:23:03;42.69;31.88;46.37;;
43512;Laerm;34054;52.100;5.116;2023-04-03T00:23:35;42.81;31.71;46.40;;
43512;Laerm;34054;52.100;5.116;2023-04-03T00:24:06;42.83;31.86;46.12;;
43512;Laerm;34054;52.100;5.116;2023-04-03T00:24:38;37.08;32.12;42.95;;
43512;Laerm;34054;52.100;5.116;2023-04-03T00:25:10;43.33;32.09;47.32;;
43512;Laerm;34054;52.100;5.116;2023-04-03T00:25:41;43.36;32.04;47.38;;
43512;Laerm;34054;52.100;5.116;2023-04-03T00:26:12;42.88;32.23;46.62;;
43512;Laerm;34054;52.100;5.116;2023-04-03T00:26:45;43.00;32.10;47.22;;
43512;Laerm;34054;52.100;5.116;2023-04-03T00:27:16;42.80;32.02;46.36;;
43512;Laerm;34054;52.100;5.116;2023-04-03T00:27:47;42.71;31.84;46.30;;
43512;Laerm;34054;52.100;5.116;2023-04-03T00:28:18;42.73;31.74;46.37;;
43512;Laerm;34054;52.100;5.116;2023-04-03T00:28:51;42.57;31.47;46.37;;
43512;Laerm;34054;52.100;5.116;2023-04-03T00:29:22;42.79;31.74;46.35;;
43512;Laerm;34054;52.100;5.116;2023-04-03T00:29:53;42.66;31.77;46.16;;
43512;Laerm;34054;52.100;5.116;2023-04-03T00:30:25;42.49;31.25;46.49;;
43512;Laerm;34054;52.100;5.116;2023-04-03T00:30:57;42.73;31.52;46.32;;
43512;Laerm;34054;52.100;5.116;2023-04-03T00:31:28;42.67;31.73;46.44;;
43512;Laerm;34054;52.100;5.116;2023-04-03T00:32:00;42.51;31.58;46.41;;
43512;Laerm;34054;52.100;5.116;2023-04-03T00:32:31;42.74;31.51;46.20;;
43512;Laerm;34054;52.100;5.116;2023-04-03T00:33:03;42.67;31.75;46.18;;
43512;Laerm;34054;52.100;5.116;2023-04-03T00:33:35;42.62;31.75;46.56;;
43512;Laerm;34054;52.100;5.116;2023-04-03T00:34:06;42.79;31.73;46.32;;
43512;Laerm;34054;52.100;5.116;2023-04-03T00:34:39;42.84;31.74;47.52;;
43512;Laerm;34054;52.100;5.116;2023-04-03T00:35:11;42.59;31.89;46.35;;
43512;Laerm;34054;52.100;5.116;2023-04-03T00:35:46;42.64;31.74;47.28;;
43512;Laerm;34054;52.100;5.116;2023-04-03T00:36:17;43.20;32.05;47.43;;
43512;Laerm;34054;52.100;5.116;2023-04-03T00:36:49;42.63;31.91;46.19;;
43512;Laerm;34054;52.100;5.116;2023-04-03T00:37:22;42.86;31.71;47.12;;
43512;Laerm;34054;52.100;5.116;2023-04-03T00:37:54;43.12;31.92;47.26;;
43512;Laerm;34054;52.100;5.116;2023-04-03T00:38:27;42.90;31.54;47.35;;
43512;Laerm;34054;52.100;5.116;2023-04-03T00:38:58;43.22;31.62;47.21;;
43512;Laerm;34054;52.100;5.116;2023-04-03T00:39:29;42.73;31.90;46.22;;
43512;Laerm;34054;52.100;5.116;2023-04-03T00:40:03;42.46;31.57;46.32;;
43512;Laerm;34054;52.100;5.116;2023-04-03T00:40:36;42.39;31.58;46.13;;
43512;Laerm;34054;52.100;5.116;2023-04-03T00:41:07;42.57;31.79;46.31;;
43512;Laerm;34054;52.100;5.116;2023-04-03T00:41:40;42.55;31.85;46.19;;
43512;Laerm;34054;52.100;5.116;2023-04-03T00:42:11;42.83;31.80;46.95;;
43512;Laerm;34054;52.100;5.116;2023-04-03T00:42:45;42.84;31.85;47.38;;
43512;Laerm;34054;52.100;5.116;2023-04-03T00:43:20;42.89;31.99;47.11;;
43512;Laerm;34054;52.100;5.116;2023-04-03T00:43:52;43.08;31.87;47.94;;
43512;Laerm;34054;52.100;5.116;2023-04-03T00:45:34;41.17;31.68;47.07;;
43512;Laerm;34054;52.100;5.116;2023-04-03T00:46:06;43.17;31.58;47.31;;
43512;Laerm;34054;52.100;5.116;2023-04-03T00:46:38;43.28;31.77;47.06;;
43512;Laerm;34054;52.100;5.116;2023-04-03T00:47:11;42.97;31.69;47.32;;
43512;Laerm;34054;52.100;5.116;2023-04-03T00:47:44;42.94;31.85;47.30;;
43512;Laerm;34054;52.100;5.116;2023-04-03T00:48:18;42.82;31.93;47.43;;
43512;Laerm;34054;52.100;5.116;2023-04-03T00:48:50;42.71;31.81;47.22;;
43512;Laerm;34054;52.100;5.116;2023-04-03T00:49:23;42.66;31.94;46.45;;
43512;Laerm;34054;52.100;5.116;2023-04-03T00:49:55;42.55;32.11;46.45;;
43512;Laerm;34054;52.100;5.116;2023-04-03T00:50:28;42.66;31.81;46.39;;
43512;Laerm;34054;52.100;5.116;2023-04-03T00:51:00;42.76;31.71;47.22;;
43512;Laerm;34054;52.100;5.116;2023-04-03T00:51:34;42.36;32.02;46.28;;
43512;Laerm;34054;52.100;5.116;2023-04-03T00:52:10;42.59;31.70;47.16;;
43512;Laerm;34054;52.100;5.116;2023-04-03T00:52:43;42.70;31.83;47.45;;
43512;Laerm;34054;52.100;5.116;2023-04-03T00:53:18;42.80;31.41;47.21;;
43512;Laerm;34054;52.100;5.116;2023-04-03T00:53:54;42.64;31.80;47.36;;
43512;Laerm;34054;52.100;5.116;2023-04-03T00:54:27;42.66;31.87;47.32;;
43512;Laerm;34054;52.100;5.116;2023-04-03T00:55:00;42.49;32.04;46.09;;
43512;Laerm;34054;52.100;5.116;2023-04-03T00:55:33;42.52;32.05;47.47;;
43512;Laerm;34054;52.100;5.116;2023-04-03T00:56:10;42.12;31.98;46.27;;
43512;Laerm;34054;52.100;5.116;2023-04-03T00:56:43;42.29;31.76;46.38;;
43512;Laerm;34054;52.100;5.116;2023-04-03T00:57:15;42.59;32.04;46.52;;
43512;Laerm;34054;52.100;5.116;2023-04-03T00:57:47;42.93;32.17;47.12;;
43512;Laerm;34054;52.100;5.116;2023-04-03T00:58:20;42.42;32.10;46.49;;
43512;Laerm;34054;52.100;5.116;2023-04-03T00:58:59;41.80;31.94;46.47;;
43512;Laerm;34054;52.100;5.116;2023-04-03T00:59:33;42.70;31.88;47.40;;
43512;Laerm;34054;52.100;5.116;2023-04-03T01:00:08;42.58;31.84;47.62;;
43512;Laerm;34054;52.100;5.116;2023-04-03T01:00:46;42.37;31.75;47.48;;
43512;Laerm;34054;52.100;5.116;2023-04-03T01:01:21;42.71;31.97;47.05;;
43512;Laerm;34054;52.100;5.116;2023-04-03T01:01:55;42.91;31.90;47.11;;
43512;Laerm;34054;52.100;5.116;2023-04-03T01:02:26;43.25;32.05;47.25;;
43512;Laerm;34054;52.100;5.116;2023-04-03T01:02:57;43.28;32.22;47.11;;
43512;Laerm;34054;52.100;5.116;2023-04-03T01:03:29;42.65;31.88;46.34;;
43512;Laerm;34054;52.100;5.116;2023-04-03T01:04:03;42.84;32.30;47.06;;
43512;Laerm;34054;52.100;5.116;2023-04-03T01:04:39;42.19;31.84;46.12;;
43512;Laerm;34054;52.100;5.116;2023-04-03T01:05:16;36.23;32.06;42.33;;
43512;Laerm;34054;52.100;5.116;2023-04-03T01:05:48;43.24;31.98;47.06;;
43512;Laerm;34054;52.100;5.116;2023-04-03T01:06:24;43.17;32.04;47.34;;
43512;Laerm;34054;52.100;5.116;2023-04-03T01:07:01;36.27;32.17;41.78;;
43512;Laerm;34054;52.100;5.116;2023-04-03T01:07:33;43.25;32.35;46.89;;
43512;Laerm;34054;52.100;5.116;2023-04-03T01:08:06;43.44;32.25;47.76;;
43512;Laerm;34054;52.100;5.116;2023-04-03T01:08:38;43.24;32.26;47.13;;
43512;Laerm;34054;52.100;5.116;2023-04-03T01:09:09;43.35;32.09;47.19;;
43512;Laerm;34054;52.100;5.116;2023-04-03T01:09:41;43.16;32.28;47.42;;
43512;Laerm;34054;52.100;5.116;2023-04-03T01:10:15;42.74;32.26;47.20;;
43512;Laerm;34054;52.100;5.116;2023-04-03T01:10:48;42.49;32.50;46.38;;
43512;Laerm;34054;52.100;5.116;2023-04-03T01:11:19;43.07;32.11;47.09;;
43512;Laerm;34054;52.100;5.116;2023-04-03T01:11:52;42.98;32.50;46.81;;
43512;Laerm;34054;52.100;5.116;2023-04-03T01:12:25;43.18;32.47;47.04;;
43512;Laerm;34054;52.100;5.116;2023-04-03T01:12:57;42.98;32.57;47.23;;
43512;Laerm;34054;52.100;5.116;2023-04-03T01:13:31;43.07;32.76;47.09;;
43512;Laerm;34054;52.100;5.116;2023-04-03T01:14:03;43.10;33.08;47.08;;
43512;Laerm;34054;52.100;5.116;2023-04-03T01:14:36;42.46;32.59;46.46;;
43512;Laerm;34054;52.100;5.116;2023-04-03T01:15:10;42.85;32.64;47.17;;
43512;Laerm;34054;52.100;5.116;2023-04-03T01:15:42;42.67;32.55;47.21;;
43512;Laerm;34054;52.100;5.116;2023-04-03T01:16:14;42.83;32.41;47.59;;
43512;Laerm;34054;52.100;5.116;2023-04-03T01:16:52;42.03;32.70;46.19;;
43512;Laerm;34054;52.100;5.116;2023-04-03T01:17:29;42.51;32.71;47.04;;
43512;Laerm;34054;52.100;5.116;2023-04-03T01:18:01;42.84;32.55;46.89;;
43512;Laerm;34054;52.100;5.116;2023-04-03T01:18:37;42.90;32.63;46.77;;
43512;Laerm;34054;52.100;5.116;2023-04-03T01:19:13;42.78;32.53;47.24;;
43512;Laerm;34054;52.100;5.116;2023-04-03T01:19:54;42.56;32.57;47.29;;
43512;Laerm;34054;52.100;5.116;2023-04-03T01:20:59;40.99;32.38;47.11;;
43512;Laerm;34054;52.100;5.116;2023-04-03T01:21:51;40.79;32.21;46.75;;
43512;Laerm;34054;52.100;5.116;2023-04-03T01:22:30;41.99;32.33;46.88;;
43512;Laerm;34054;52.100;5.116;2023-04-03T01:23:22;41.81;32.14;47.08;;
43512;Laerm;34054;52.100;5.116;2023-04-03T01:24:04;42.23;32.40;46.96;;
43512;Laerm;34054;52.100;5.116;2023-04-03T01:24:39;42.46;32.20;47.25;;
43512;Laerm;34054;52.100;5.116;2023-04-03T01:25:10;43.44;32.01;46.89;;
43512;Laerm;34054;52.100;5.116;2023-04-03T01:25:43;43.15;32.58;47.10;;
43512;Laerm;34054;52.100;5.116;2023-04-03T01:26:15;42.84;32.50;46.97;;
43512;Laerm;34054;52.100;5.116;2023-04-03T01:26:48;43.07;32.33;47.07;;
43512;Laerm;34054;52.100;5.116;2023-04-03T01:27:19;42.73;32.49;46.45;;
43512;Laerm;34054;52.100;5.116;2023-04-03T01:27:50;42.74;32.49;46.34;;
43512;Laerm;34054;52.100;5.116;2023-04-03T01:28:24;42.65;32.00;47.36;;
43512;Laerm;34054;52.100;5.116;2023-04-03T01:28:59;42.38;32.16;47.59;;
43512;Laerm;34054;52.100;5.116;2023-04-03T01:29:30;42.80;31.99;46.99;;
43512;Laerm;34054;52.100;5.116;2023-04-03T01:30:03;42.81;32.37;46.95;;
43512;Laerm;34054;52.100;5.116;2023-04-03T01:30:37;42.84;32.57;47.20;;
43512;Laerm;34054;52.100;5.116;2023-04-03T01:31:16;42.45;32.26;47.07;;
43512;Laerm;34054;52.100;5.116;2023-04-03T01:31:54;42.08;32.47;47.33;;
43512;Laerm;34054;52.100;5.116;2023-04-03T01:32:26;43.05;32.66;46.94;;
43512;Laerm;34054;52.100;5.116;2023-04-03T01:32:57;43.14;32.61;47.09;;
43512;Laerm;34054;52.100;5.116;2023-04-03T01:33:29;42.88;32.60;47.22;;
43512;Laerm;34054;52.100;5.116;2023-04-03T01:34:01;42.97;32.47;47.20;;
43512;Laerm;34054;52.100;5.116;2023-04-03T01:34:33;42.53;32.56;46.46;;
43512;Laerm;34054;52.100;5.116;2023-04-03T01:35:07;42.71;32.34;47.01;;
43512;Laerm;34054;52.100;5.116;2023-04-03T01:35:39;42.93;32.25;47.21;;
43512;Laerm;34054;52.100;5.116;2023-04-03T01:36:15;42.33;32.49;47.38;;
43512;Laerm;34054;52.100;5.116;2023-04-03T01:36:47;42.74;32.65;47.06;;
43512;Laerm;34054;52.100;5.116;2023-04-03T01:37:19;42.84;32.26;47.18;;
43512;Laerm;34054;52.100;5.116;2023-04-03T01:37:50;43.11;32.32;46.99;;
43512;Laerm;34054;52.100;5.116;2023-04-03T01:38:22;36.82;32.16;42.34;;
43512;Laerm;34054;52.100;5.116;2023-04-03T01:38:54;43.10;32.33;46.80;;
43512;Laerm;34054;52.100;5.116;2023-04-03T01:39:27;43.39;32.64;47.43;;
43512;Laerm;34054;52.100;5.116;2023-04-03T01:39:58;43.31;32.25;46.91;;
43512;Laerm;34054;52.100;5.116;2023-04-03T01:40:29;43.29;32.32;47.15;;
43512;Laerm;34054;52.100;5.116;2023-04-03T01:41:01;43.18;32.40;46.98;;
43512;Laerm;34054;52.100;5.116;2023-04-03T01:41:32;43.17;32.80;46.72;;
43512;Laerm;34054;52.100;5.116;2023-04-03T01:42:04;43.22;32.72;47.15;;
43512;Laerm;34054;52.100;5.116;2023-04-03T01:42:36;43.04;32.54;46.87;;
43512;Laerm;34054;52.100;5.116;2023-04-03T01:43:07;42.96;32.72;47.36;;
43512;Laerm;34054;52.100;5.116;2023-04-03T01:43:38;43.17;33.27;47.24;;
43512;Laerm;34054;52.100;5.116;2023-04-03T01:44:11;43.09;33.21;47.09;;
43512;Laerm;34054;52.100;5.116;2023-04-03T01:44:42;43.26;33.13;47.38;;
43512;Laerm;34054;52.100;5.116;2023-04-03T01:45:14;43.20;33.22;46.91;;
43512;Laerm;34054;52.100;5.116;2023-04-03T01:45:46;42.60;33.22;46.17;;
43512;Laerm;34054;52.100;5.116;2023-04-03T01:46:18;42.63;33.35;46.07;;
43512;Laerm;34054;52.100;5.116;2023-04-03T01:46:49;43.14;33.26;47.08;;
43512;Laerm;34054;52.100;5.116;2023-04-03T01:47:23;43.07;32.93;47.02;;
43512;Laerm;34054;52.100;5.116;2023-04-03T01:47:54;43.30;33.18;47.00;;
43512;Laerm;34054;52.100;5.116;2023-04-03T01:48:25;43.28;33.21;46.90;;
43512;Laerm;34054;52.100;5.116;2023-04-03T01:48:57;43.16;33.12;46.93;;
43512;Laerm;34054;52.100;5.116;2023-04-03T01:49:29;43.35;33.17;47.01;;
43512;Laerm;34054;52.100;5.116;2023-04-03T01:50:00;43.45;33.37;46.98;;
43512;Laerm;34054;52.100;5.116;2023-04-03T01:50:32;43.25;33.37;46.95;;
43512;Laerm;34054;52.100;5.116;2023-04-03T01:51:03;43.18;32.60;46.96;;
43512;Laerm;34054;52.100;5.116;2023-04-03T01:51:34;43.18;33.12;46.83;;
43512;Laerm;34054;52.100;5.116;2023-04-03T01:52:06;43.01;32.86;46.83;;
43512;Laerm;34054;52.100;5.116;2023-04-03T01:52:38;43.34;32.94;46.96;;
43512;Laerm;34054;52.100;5.116;2023-04-03T01:53:10;43.01;33.13;46.67;;
43512;Laerm;34054;52.100;5.116;2023-04-03T01:53:42;42.92;33.11;46.81;;
43512;Laerm;34054;52.100;5.116;2023-04-03T01:54:13;43.29;32.78;46.77;;
43512;Laerm;34054;52.100;5.116;2023-04-03T01:54:44;43.23;32.93;47.09;;
43512;Laerm;34054;52.100;5.116;2023-04-03T01:55:16;43.23;32.54;47.12;;
43512;Laerm;34054;52.100;5.116;2023-04-03T01:55:48;43.18;33.24;47.00;;
43512;Laerm;34054;52.100;5.116;2023-04-03T01:56:19;43.23;32.91;46.98;;
43512;Laerm;34054;52.100;5.116;2023-04-03T01:56:52;42.93;32.32;47.10;;
43512;Laerm;34054;52.100;5.116;2023-04-03T01:57:23;43.15;32.91;47.02;;
43512;Laerm;34054;52.100;5.116;2023-04-03T01:57:54;42.99;32.78;47.00;;
43512;Laerm;34054;52.100;5.116;2023-04-03T01:58:26;42.76;32.69;47.24;;
43512;Laerm;34054;52.100;5.116;2023-04-03T01:58:57;42.93;32.63;46.97;;
43512;Laerm;34054;52.100;5.116;2023-04-03T01:59:29;43.08;32.50;46.91;;
43512;Laerm;34054;52.100;5.116;2023-04-03T02:00:01;43.12;32.61;46.79;;
43512;Laerm;34054;52.100;5.116;2023-04-03T02:00:32;37.17;32.81;44.18;;
43512;Laerm;34054;52.100;5.116;2023-04-03T02:01:04;43.35;32.86;47.23;;
43512;Laerm;34054;52.100;5.116;2023-04-03T02:01:36;43.44;32.73;47.53;;
43512;Laerm;34054;52.100;5.116;2023-04-03T02:02:07;43.31;33.03;46.82;;
43512;Laerm;34054;52.100;5.116;2023-04-03T02:02:40;43.18;33.09;46.82;;
43512;Laerm;34054;52.100;5.116;2023-04-03T02:03:12;43.36;32.62;47.42;;
43512;Laerm;34054;52.100;5.116;2023-04-03T02:03:43;43.33;32.81;47.05;;
43512;Laerm;34054;52.100;5.116;2023-04-03T02:04:14;43.56;33.01;47.34;;
43512;Laerm;34054;52.100;5.116;2023-04-03T02:04:47;43.35;32.83;46.79;;
43512;Laerm;34054;52.100;5.116;2023-04-03T02:05:18;43.47;32.98;47.11;;
43512;Laerm;34054;52.100;5.116;2023-04-03T02:05:49;43.42;33.05;46.95;;
43512;Laerm;34054;52.100;5.116;2023-04-03T02:06:21;43.16;32.85;46.79;;
43512;Laerm;34054;52.100;5.116;2023-04-03T02:06:52;43.38;33.23;47.39;;
43512;Laerm;34054;52.100;5.116;2023-04-03T02:07:24;43.56;33.22;47.06;;
43512;Laerm;34054;52.100;5.116;2023-04-03T02:07:56;43.49;33.51;47.19;;
43512;Laerm;34054;52.100;5.116;2023-04-03T02:08:27;43.60;33.91;46.90;;
43512;Laerm;34054;52.100;5.116;2023-04-03T02:08:58;43.66;33.34;47.20;;
43512;Laerm;34054;52.100;5.116;2023-04-03T02:09:30;43.44;33.67;47.30;;
43512;Laerm;34054;52.100;5.116;2023-04-03T02:10:02;43.52;33.31;47.19;;
43512;Laerm;34054;52.100;5.116;2023-04-03T02:10:33;43.41;33.53;46.77;;
43512;Laerm;34054;52.100;5.116;2023-04-03T02:11:05;43.53;33.16;47.44;;
43512;Laerm;34054;52.100;5.116;2023-04-03T02:11:37;43.33;33.32;46.82;;
43512;Laerm;34054;52.100;5.116;2023-04-03T02:12:08;43.42;33.13;46.78;;
43512;Laerm;34054;52.100;5.116;2023-04-03T02:12:40;43.32;33.30;47.44;;
43512;Laerm;34054;52.100;5.116;2023-04-03T02:13:11;43.52;33.33;47.15;;
43512;Laerm;34054;52.100;5.116;2023-04-03T02:13:43;43.32;33.37;47.07;;
43512;Laerm;34054;52.100;5.116;2023-04-03T02:14:15;43.25;33.36;46.95;;
43512;Laerm;34054;52.100;5.116;2023-04-03T02:14:46;43.51;33.07;47.34;;
43512;Laerm;34054;52.100;5.116;2023-04-03T02:15:18;43.50;33.01;47.27;;
43512;Laerm;34054;52.100;5.116;2023-04-03T02:15:49;43.41;33.21;47.05;;
43512;Laerm;34054;52.100;5.116;2023-04-03T02:16:21;43.48;33.14;47.36;;
43512;Laerm;34054;52.100;5.116;2023-04-03T02:16:52;43.60;33.03;47.26;;
43512;Laerm;34054;52.100;5.116;2023-04-03T02:17:24;43.33;32.79;46.95;;
43512;Laerm;34054;52.100;5.116;2023-04-03T02:17:57;43.10;32.89;46.98;;
43512;Laerm;34054;52.100;5.116;2023-04-03T02:18:28;43.32;33.17;47.43;;
43512;Laerm;34054;52.100;5.116;2023-04-03T02:19:00;43.35;33.13;46.88;;
43512;Laerm;34054;52.100;5.116;2023-04-03T02:19:32;43.30;32.91;47.00;;
43512;Laerm;34054;52.100;5.116;2023-04-03T02:20:04;43.29;32.88;46.83;;
43512;Laerm;34054;52.100;5.116;2023-04-03T02:20:35;43.37;33.04;46.69;;
43512;Laerm;34054;52.100;5.116;2023-04-03T02:21:07;43.35;32.94;47.22;;
43512;Laerm;34054;52.100;5.116;2023-04-03T02:21:39;43.28;33.20;46.80;;
43512;Laerm;34054;52.100;5.116;2023-04-03T02:22:10;43.24;32.89;46.71;;
43512;Laerm;34054;52.100;5.116;2023-04-03T02:22:42;43.23;32.85;47.01;;
43512;Laerm;34054;52.100;5.116;2023-04-03T02:23:13;43.45;33.28;47.42;;
43512;Laerm;34054;52.100;5.116;2023-04-03T02:23:44;43.24;32.68;47.07;;
43512;Laerm;34054;52.100;5.116;2023-04-03T02:24:17;43.19;33.20;46.86;;
43512;Laerm;34054;52.100;5.116;2023-04-03T02:24:48;43.42;32.97;46.85;;
43512;Laerm;34054;52.100;5.116;2023-04-03T02:25:19;43.54;33.33;47.16;;
43512;Laerm;34054;52.100;5.116;2023-04-03T02:25:52;43.28;33.71;46.83;;
43512;Laerm;34054;52.100;5.116;2023-04-03T02:26:23;38.05;33.72;44.12;;
43512;Laerm;34054;52.100;5.116;2023-04-03T02:26:54;43.69;34.32;47.26;;
43512;Laerm;34054;52.100;5.116;2023-04-03T02:27:27;43.66;34.43;47.26;;
43512;Laerm;34054;52.100;5.116;2023-04-03T02:27:58;43.77;34.19;47.29;;
43512;Laerm;34054;52.100;5.116;2023-04-03T02:28:29;43.68;34.53;47.00;;
43512;Laerm;34054;52.100;5.116;2023-04-03T02:29:01;43.50;34.76;46.80;;
43512;Laerm;34054;52.100;5.116;2023-04-03T02:29:33;43.66;34.32;47.23;;
43512;Laerm;34054;52.100;5.116;2023-04-03T02:30:06;43.60;34.17;47.08;;
43512;Laerm;34054;52.100;5.116;2023-04-03T02:30:40;43.34;34.55;47.34;;
43512;Laerm;34054;52.100;5.116;2023-04-03T02:31:11;43.73;34.49;47.22;;
43512;Laerm;34054;52.100;5.116;2023-04-03T02:31:42;43.64;33.91;47.27;;
43512;Laerm;34054;52.100;5.116;2023-04-03T02:32:14;43.52;32.98;47.14;;
43512;Laerm;34054;52.100;5.116;2023-04-03T02:32:46;43.23;33.26;46.98;;
43512;Laerm;34054;52.100;5.116;2023-04-03T02:33:18;43.36;33.37;47.29;;
43512;Laerm;34054;52.100;5.116;2023-04-03T02:33:50;43.45;33.45;47.05;;
43512;Laerm;34054;52.100;5.116;2023-04-03T02:34:22;43.07;33.53;46.79;;
43512;Laerm;34054;52.100;5.116;2023-04-03T02:34:53;43.39;33.49;47.07;;
43512;Laerm;34054;52.100;5.116;2023-04-03T02:35:24;43.31;33.35;47.15;;
43512;Laerm;34054;52.100;5.116;2023-04-03T02:35:57;43.29;33.49;47.14;;
43512;Laerm;34054;52.100;5.116;2023-04-03T02:36:28;43.26;33.37;47.09;;
43512;Laerm;34054;52.100;5.116;2023-04-03T02:36:59;43.23;33.60;46.63;;
43512;Laerm;34054;52.100;5.116;2023-04-03T02:37:32;43.14;32.56;46.93;;
43512;Laerm;34054;52.100;5.116;2023-04-03T02:38:03;43.22;33.02;46.87;;
43512;Laerm;34054;52.100;5.116;2023-04-03T02:38:34;43.35;33.29;46.83;;
43512;Laerm;34054;52.100;5.116;2023-04-03T02:39:08;42.94;33.62;46.94;;
43512;Laerm;34054;52.100;5.116;2023-04-03T02:39:39;43.36;33.59;47.11;;
43512;Laerm;34054;52.100;5.116;2023-04-03T02:40:10;43.44;33.70;47.06;;
43512;Laerm;34054;52.100;5.116;2023-04-03T02:40:43;43.10;33.20;47.06;;
43512;Laerm;34054;52.100;5.116;2023-04-03T02:41:14;43.34;33.11;47.14;;
43512;Laerm;34054;52.100;5.116;2023-04-03T02:41:45;43.34;32.67;47.08;;
43512;Laerm;34054;52.100;5.116;2023-04-03T02:42:17;43.35;33.29;47.04;;
43512;Laerm;34054;52.100;5.116;2023-04-03T02:42:49;43.30;33.33;46.81;;
43512;Laerm;34054;52.100;5.116;2023-04-03T02:43:20;43.31;33.20;46.93;;
43512;Laerm;34054;52.100;5.116;2023-04-03T02:43:52;43.07;33.46;46.67;;
43512;Laerm;34054;52.100;5.116;2023-04-03T02:44:24;43.43;33.29;47.06;;
43512;Laerm;34054;52.100;5.116;2023-04-03T02:44:55;43.32;33.39;47.10;;
43512;Laerm;34054;52.100;5.116;2023-04-03T02:45:28;43.09;32.90;46.82;;
43512;Laerm;34054;52.100;5.116;2023-04-03T02:45:59;43.18;33.06;46.81;;
43512;Laerm;34054;52.100;5.116;2023-04-03T02:46:30;43.25;32.86;47.00;;
43512;Laerm;34054;52.100;5.116;2023-04-03T02:47:03;43.06;32.88;46.89;;
43512;Laerm;34054;52.100;5.116;2023-04-03T02:47:34;43.17;32.59;46.67;;
43512;Laerm;34054;52.100;5.116;2023-04-03T02:48:05;43.23;32.97;46.84;;
43512;Laerm;34054;52.100;5.116;2023-04-03T02:48:39;42.94;32.71;47.04;;
43512;Laerm;34054;52.100;5.116;2023-04-03T02:49:10;43.15;32.86;46.69;;
43512;Laerm;34054;52.100;5.116;2023-04-03T02:49:41;43.35;32.91;47.24;;
43512;Laerm;34054;52.100;5.116;2023-04-03T02:50:15;42.94;32.85;47.01;;
43512;Laerm;34054;52.100;5.116;2023-04-03T02:50:47;43.30;32.81;47.16;;
43512;Laerm;34054;52.100;5.116;2023-04-03T02:51:18;43.47;32.82;47.33;;
43512;Laerm;34054;52.100;5.116;2023-04-03T02:51:50;43.22;33.05;47.45;;
43512;Laerm;34054;52.100;5.116;2023-04-03T02:52:22;43.32;32.93;47.07;;
43512;Laerm;34054;52.100;5.116;2023-04-03T02:52:54;43.26;32.65;47.12;;
43512;Laerm;34054;52.100;5.116;2023-04-03T02:53:26;43.33;32.98;47.23;;
43512;Laerm;34054;52.100;5.116;2023-04-03T02:53:57;43.37;32.71;46.80;;
43512;Laerm;34054;52.100;5.116;2023-04-03T02:54:29;43.41;32.91;47.34;;
43512;Laerm;34054;52.100;5.116;2023-04-03T02:55:01;43.51;32.17;47.31;;
43512;Laerm;34054;52.100;5.116;2023-04-03T02:55:33;43.22;32.59;47.09;;
43512;Laerm;34054;52.100;5.116;2023-04-03T02:56:05;43.28;32.68;47.31;;
43512;Laerm;34054;52.100;5.116;2023-04-03T02:56:36;37.08;32.72;44.40;;
43512;Laerm;34054;52.100;5.116;2023-04-03T02:57:07;43.39;32.40;46.64;;
43512;Laerm;34054;52.100;5.116;2023-04-03T02:57:40;43.41;32.73;46.97;;
43512;Laerm;34054;52.100;5.116;2023-04-03T02:58:11;43.53;32.63;47.46;;
43512;Laerm;34054;52.100;5.116;2023-04-03T02:58:43;43.54;32.70;47.28;;
43512;Laerm;34054;52.100;5.116;2023-04-03T02:59:14;43.28;32.57;47.11;;
43512;Laerm;34054;52.100;5.116;2023-04-03T02:59:46;43.32;32.46;47.47;;
43512;Laerm;34054;52.100;5.116;2023-04-03T03:00:19;43.46;32.73;47.53;;
43512;Laerm;34054;52.100;5.116;2023-04-03T03:00:50;43.38;32.58;47.22;;
43512;Laerm;34054;52.100;5.116;2023-04-03T03:01:22;43.47;32.79;47.26;;
43512;Laerm;34054;52.100;5.116;2023-04-03T03:01:53;43.32;32.57;47.06;;
43512;Laerm;34054;52.100;5.116;2023-04-03T03:02:26;43.36;32.99;47.27;;
43512;Laerm;34054;52.100;5.116;2023-04-03T03:02:58;43.30;32.74;47.16;;